Time;durP1;ratioP1;P1;durP2;ratioP2;P2;SDS_P1;SDS_P2;PMS_P1;PMS_P2;Temp;Humidity;BMP_temperature;BMP_pressure;BME280_temperature;BME280_humidity;BME280_pressure;Samples;Min_cycle;Max_cycle;Signal;HPM_P1;HPM_P2
2023/05/10 00:01:00;;;;;;;1.77;1.67;;;;;;;;;;5042680;28;20041;-82
2023/05/10 00:03:27;;;;;;;1.80;1.70;;;;;;;;;;5045033;28;20049;-82
2023/05/10 00:05:55;;;;;;;1.80;1.70;;;;;;;;;;5044477;28;20072;-82
2023/05/10 00:08:22;;;;;;;1.63;1.60;;;;;;;;;;5046248;28;20088;-82
2023/05/10 00:10:52;;;;;;;2.00;1.90;;;;;;;;;;5041199;28;20132;-81
2023/05/10 00:13:19;;;;;;;2.72;2.58;;;;;;;;;;5043061;28;20087;-82
2023/05/10 00:15:47;;;;;;;2.58;2.40;;;;;;;;;;5044586;28;20092;-82
2023/05/10 00:18:14;;;;;;;2.10;2.00;;;;;;;;;;5040364;28;20118;-81
2023/05/10 00:20:41;;;;;;;1.90;1.80;;;;;;;;;;5042078;28;20506;-82
2023/05/10 00:23:09;;;;;;;3.08;1.83;;;;;;;;;;5039630;28;20099;-82
2023/05/10 00:25:37;;;;;;;1.52;1.52;;;;;;;;;;5038626;28;20049;-81
2023/05/10 00:28:04;;;;;;;2.03;1.92;;;;;;;;;;5042098;28;20049;-81
2023/05/10 00:30:31;;;;;;;2.17;1.90;;;;;;;;;;5022186;28;21081;-83
2023/05/10 00:32:59;;;;;;;1.90;1.80;;;;;;;;;;5026576;28;20049;-82
2023/05/10 00:35:26;;;;;;;2.13;2.00;;;;;;;;;;5040816;28;20514;-82
2023/05/10 00:37:53;;;;;;;2.05;1.95;;;;;;;;;;5026454;28;20056;-83
2023/05/10 00:40:21;;;;;;;1.50;1.50;;;;;;;;;;5026571;28;20060;-83
2023/05/10 00:42:53;;;;;;;1.80;1.67;;;;;;;;;;5027902;28;20045;-82
2023/05/10 00:45:21;;;;;;;1.77;1.50;;;;;;;;;;5024832;28;20768;-82
2023/05/10 00:47:48;;;;;;;1.63;1.58;;;;;;;;;;5022340;28;20045;-82
2023/05/10 00:50:17;;;;;;;1.60;1.50;;;;;;;;;;5046651;28;20053;-83
2023/05/10 00:52:44;;;;;;;1.55;1.55;;;;;;;;;;5045444;28;20049;-82
2023/05/10 00:55:12;;;;;;;2.67;1.50;;;;;;;;;;5049011;28;20091;-83
2023/05/10 00:57:39;;;;;;;1.90;1.80;;;;;;;;;;5030708;28;20569;-80
2023/05/10 01:00:07;;;;;;;1.92;1.70;;;;;;;;;;5047825;28;20069;-82
2023/05/10 01:02:35;;;;;;;1.50;1.50;;;;;;;;;;5039969;28;20068;-81
2023/05/10 01:05:03;;;;;;;1.95;1.85;;;;;;;;;;5024588;28;20060;-81
2023/05/10 01:07:31;;;;;;;2.08;1.92;;;;;;;;;;5048383;28;20130;-82
2023/05/10 01:09:58;;;;;;;2.03;1.92;;;;;;;;;;5052192;28;20061;-81
2023/05/10 01:12:26;;;;;;;1.73;1.63;;;;;;;;;;5010690;28;20052;-81
2023/05/10 01:14:54;;;;;;;1.90;1.80;;;;;;;;;;5049962;28;20052;-81
2023/05/10 01:17:22;;;;;;;1.70;1.60;;;;;;;;;;5037341;28;20053;-81
2023/05/10 01:19:50;;;;;;;1.95;1.85;;;;;;;;;;5038918;28;20100;-83
2023/05/10 01:22:17;;;;;;;2.20;2.10;;;;;;;;;;5026449;28;20095;-83
2023/05/10 01:24:58;;;;;;;1.95;1.85;;;;;;;;;;5046502;28;20058;-83
2023/05/10 01:27:36;;;;;;;1.88;1.77;;;;;;;;;;5066591;28;20033;-82
2023/05/10 01:30:25;;;;;;;1.70;1.70;;;;;;;;;;5047458;28;20037;-81
2023/05/10 01:32:58;;;;;;;1.90;1.80;;;;;;;;;;5054888;28;20123;-82
2023/05/10 01:35:42;;;;;;;2.00;1.90;;;;;;;;;;5049547;28;20045;-81
2023/05/10 01:38:19;;;;;;;1.80;1.70;;;;;;;;;;5048259;28;20049;-81
2023/05/10 01:40:52;;;;;;;1.30;1.30;;;;;;;;;;5027457;28;20514;-81
2023/05/10 01:43:28;;;;;;;1.70;1.60;;;;;;;;;;5028036;28;20056;-81
2023/05/10 01:46:10;;;;;;;2.13;1.95;;;;;;;;;;5048098;28;20045;-82
2023/05/10 01:48:46;;;;;;;1.90;1.80;;;;;;;;;;5044607;28;20071;-82
2023/05/10 01:51:20;;;;;;;1.70;1.60;;;;;;;;;;5045244;28;20586;-81
2023/05/10 01:53:48;;;;;;;1.65;1.63;;;;;;;;;;5050244;28;20057;-83
2023/05/10 01:56:16;;;;;;;1.85;1.75;;;;;;;;;;5046354;28;20049;-82
2023/05/10 01:58:46;;;;;;;1.75;1.65;;;;;;;;;;5033555;28;20174;-83
2023/05/10 02:01:14;;;;;;;2.15;2.03;;;;;;;;;;5025408;28;20569;-82
2023/05/10 02:03:43;;;;;;;2.65;1.80;;;;;;;;;;5022167;28;20465;-83
2023/05/10 02:06:11;;;;;;;1.92;1.83;;;;;;;;;;5028780;28;20136;-83
2023/05/10 02:08:39;;;;;;;1.92;1.83;;;;;;;;;;5047518;28;20426;-81
2023/05/10 02:11:07;;;;;;;1.90;1.80;;;;;;;;;;5023892;28;20081;-82
2023/05/10 02:13:36;;;;;;;1.98;1.88;;;;;;;;;;5021861;28;20140;-82
2023/05/10 02:16:05;;;;;;;1.50;1.50;;;;;;;;;;5015864;28;20060;-83
2023/05/10 02:18:34;;;;;;;2.17;2.08;;;;;;;;;;5035089;28;20037;-82
2023/05/10 02:21:02;;;;;;;1.70;1.63;;;;;;;;;;5026040;28;20076;-82
2023/05/10 02:23:30;;;;;;;1.73;1.63;;;;;;;;;;5037093;28;20044;-82
2023/05/10 02:25:57;;;;;;;1.85;1.75;;;;;;;;;;5029873;28;20053;-83
2023/05/10 02:28:26;;;;;;;2.30;1.80;;;;;;;;;;5037633;28;20041;-83
2023/05/10 02:30:55;;;;;;;1.90;1.80;;;;;;;;;;5040624;28;20056;-82
2023/05/10 02:33:23;;;;;;;2.03;1.92;;;;;;;;;;5049697;28;20055;-82
2023/05/10 02:35:52;;;;;;;2.10;2.00;;;;;;;;;;5028964;28;20080;-83
2023/05/10 02:38:21;;;;;;;2.10;2.00;;;;;;;;;;5020847;28;20100;-82
2023/05/10 02:40:48;;;;;;;1.98;1.88;;;;;;;;;;5044386;28;20106;-81
2023/05/10 02:43:18;;;;;;;1.98;1.88;;;;;;;;;;5047214;28;20054;-81
2023/05/10 02:45:47;;;;;;;2.30;2.10;;;;;;;;;;5047688;28;20132;-82
2023/05/10 02:48:14;;;;;;;2.10;2.00;;;;;;;;;;5047335;28;20392;-81
2023/05/10 02:50:44;;;;;;;2.22;2.13;;;;;;;;;;5042370;28;20071;-82
2023/05/10 02:53:16;;;;;;;1.80;1.70;;;;;;;;;;5032983;28;20103;-82
2023/05/10 02:55:47;;;;;;;1.80;1.70;;;;;;;;;;5029145;28;20160;-82
2023/05/10 02:58:14;;;;;;;2.30;2.20;;;;;;;;;;5044602;28;20050;-83
2023/05/10 03:00:42;;;;;;;2.38;2.17;;;;;;;;;;5024004;28;20041;-83
2023/05/10 03:03:11;;;;;;;1.65;1.60;;;;;;;;;;5021182;28;20640;-82
2023/05/10 03:05:39;;;;;;;2.50;2.30;;;;;;;;;;5025653;28;20502;-81
2023/05/10 03:08:06;;;;;;;2.83;2.13;;;;;;;;;;5026077;28;20049;-82
2023/05/10 03:10:38;;;;;;;2.13;1.80;;;;;;;;;;5022434;28;20056;-81
2023/05/10 03:13:35;;;;;;;2.40;2.20;;;;;;;;;;5042943;28;20132;-82
2023/05/10 03:16:32;;;;;;;2.60;2.40;;;;;;;;;;4993982;28;20433;-82
2023/05/10 03:18:59;;;;;;;2.35;2.17;;;;;;;;;;4993301;28;20053;-82
2023/05/10 03:21:29;;;;;;;2.08;1.95;;;;;;;;;;5024278;28;20513;-82
2023/05/10 03:24:00;;;;;;;2.03;1.92;;;;;;;;;;5027645;28;20186;-81
2023/05/10 03:26:28;;;;;;;2.40;2.20;;;;;;;;;;5046298;28;20509;-82
2023/05/10 03:29:05;;;;;;;2.20;2.10;;;;;;;;;;5027130;28;20607;-82
2023/05/10 03:31:32;;;;;;;2.70;2.50;;;;;;;;;;5025486;28;20041;-83
2023/05/10 03:34:01;;;;;;;2.40;2.20;;;;;;;;;;5025431;28;20067;-83
2023/05/10 03:36:28;;;;;;;2.53;2.33;;;;;;;;;;5021535;28;20045;-82
2023/05/10 03:38:55;;;;;;;2.78;2.58;;;;;;;;;;5021574;28;20045;-82
2023/05/10 03:41:25;;;;;;;2.50;2.30;;;;;;;;;;5020115;28;20052;-83
2023/05/10 03:43:53;;;;;;;2.70;2.50;;;;;;;;;;5024604;28;20044;-82
2023/05/10 03:46:20;;;;;;;2.75;2.42;;;;;;;;;;5037334;28;20052;-83
2023/05/10 03:48:49;;;;;;;2.20;2.10;;;;;;;;;;5026693;28;20127;-83
2023/05/10 03:51:16;;;;;;;2.53;2.33;;;;;;;;;;5041091;28;20450;-83
2023/05/10 03:53:43;;;;;;;2.67;2.42;;;;;;;;;;5027366;28;20391;-83
2023/05/10 03:56:10;;;;;;;2.58;2.38;;;;;;;;;;5043236;28;20041;-81
2023/05/10 03:58:38;;;;;;;2.75;2.50;;;;;;;;;;5030957;28;20045;-82
2023/05/10 04:01:05;;;;;;;3.10;2.90;;;;;;;;;;5009152;28;20061;-82
2023/05/10 04:03:35;;;;;;;2.53;2.40;;;;;;;;;;5020862;28;20065;-82
2023/05/10 04:06:03;;;;;;;2.00;1.90;;;;;;;;;;5041286;28;20137;-82
2023/05/10 04:08:30;;;;;;;2.13;2.03;;;;;;;;;;5029058;28;20042;-83
2023/05/10 04:11:10;;;;;;;2.25;2.10;;;;;;;;;;5039526;28;20057;-81
2023/05/10 04:13:37;;;;;;;2.50;2.30;;;;;;;;;;5040697;28;20095;-82
2023/05/10 04:16:06;;;;;;;2.38;2.20;;;;;;;;;;5035457;28;20108;-82
2023/05/10 04:18:33;;;;;;;2.45;2.35;;;;;;;;;;5038957;28;20082;-82
2023/05/10 04:21:00;;;;;;;2.22;2.13;;;;;;;;;;5039488;28;20106;-83
2023/05/10 04:23:28;;;;;;;2.83;2.63;;;;;;;;;;5041852;28;20045;-83
2023/05/10 04:26:02;;;;;;;3.17;2.63;;;;;;;;;;5046292;28;20044;-81
2023/05/10 04:28:29;;;;;;;2.83;2.63;;;;;;;;;;5036875;28;20045;-82
2023/05/10 04:31:06;;;;;;;3.08;2.88;;;;;;;;;;5038014;28;20041;-81
2023/05/10 04:33:34;;;;;;;3.88;2.80;;;;;;;;;;5054306;28;20044;-82
2023/05/10 04:36:02;;;;;;;2.78;2.58;;;;;;;;;;5071174;28;20044;-81
2023/05/10 04:38:29;;;;;;;2.92;2.72;;;;;;;;;;5045885;28;20052;-82
2023/05/10 04:41:09;;;;;;;2.65;2.55;;;;;;;;;;5054019;28;20049;-82
2023/05/10 04:43:37;;;;;;;3.13;2.90;;;;;;;;;;5065528;28;20067;-80
2023/05/10 04:46:05;;;;;;;3.20;3.00;;;;;;;;;;5062214;28;20021;-81
2023/05/10 04:48:32;;;;;;;3.47;3.20;;;;;;;;;;5042400;28;20045;-82
2023/05/10 04:51:00;;;;;;;3.55;3.25;;;;;;;;;;5050989;28;20043;-81
2023/05/10 04:53:27;;;;;;;3.47;3.28;;;;;;;;;;5042785;28;20083;-83
2023/05/10 04:55:54;;;;;;;3.60;3.30;;;;;;;;;;5052540;28;20129;-83
2023/05/10 04:58:22;;;;;;;3.53;3.33;;;;;;;;;;5051751;28;20041;-84
2023/05/10 05:00:54;;;;;;;3.03;2.83;;;;;;;;;;5003234;28;20132;-84
2023/05/10 05:03:25;;;;;;;3.50;3.30;;;;;;;;;;5037813;28;20051;-84
2023/05/10 05:05:53;;;;;;;3.60;3.30;;;;;;;;;;5045516;28;20135;-84
2023/05/10 05:08:20;;;;;;;3.55;3.25;;;;;;;;;;5046088;28;20071;-85
2023/05/10 05:10:50;;;;;;;3.15;2.95;;;;;;;;;;5024155;28;20079;-85
2023/05/10 05:13:18;;;;;;;3.60;3.30;;;;;;;;;;5045084;28;20124;-84
2023/05/10 05:15:45;;;;;;;3.75;3.42;;;;;;;;;;5036418;28;20754;-81
2023/05/10 05:18:12;;;;;;;3.58;3.35;;;;;;;;;;5043063;28;20140;-82
2023/05/10 05:20:40;;;;;;;4.53;4.13;;;;;;;;;;5040050;28;20045;-83
2023/05/10 05:23:10;;;;;;;3.78;3.47;;;;;;;;;;5042064;28;20055;-84
2023/05/10 05:25:37;;;;;;;3.90;3.50;;;;;;;;;;5016695;28;20092;-83
2023/05/10 05:28:05;;;;;;;3.45;3.25;;;;;;;;;;5039305;28;20056;-84
2023/05/10 05:30:32;;;;;;;3.92;3.63;;;;;;;;;;5045639;28;20069;-82
2023/05/10 05:32:59;;;;;;;3.42;3.10;;;;;;;;;;5036451;28;20050;-83
2023/05/10 05:35:27;;;;;;;3.45;2.83;;;;;;;;;;5044336;28;20059;-83
2023/05/10 05:37:56;;;;;;;3.85;3.55;;;;;;;;;;5038521;28;20135;-83
2023/05/10 05:40:24;;;;;;;3.60;3.35;;;;;;;;;;5039988;28;21068;-78
2023/05/10 05:42:51;;;;;;;3.85;3.55;;;;;;;;;;5041965;28;20050;-83
2023/05/10 05:45:19;;;;;;;3.38;3.17;;;;;;;;;;5045097;28;20045;-84
2023/05/10 05:47:47;;;;;;;3.38;3.08;;;;;;;;;;5040349;28;20558;-84
2023/05/10 05:50:14;;;;;;;3.53;3.22;;;;;;;;;;5044717;28;20041;-83
2023/05/10 05:52:41;;;;;;;3.45;3.25;;;;;;;;;;5047279;28;20613;-81
2023/05/10 05:55:09;;;;;;;3.53;3.30;;;;;;;;;;5043451;28;20658;-83
2023/05/10 05:57:36;;;;;;;4.03;3.72;;;;;;;;;;5043618;28;20073;-83
2023/05/10 06:00:04;;;;;;;4.13;3.72;;;;;;;;;;5040904;28;20063;-83
2023/05/10 06:02:38;;;;;;;3.60;3.30;;;;;;;;;;5034409;28;20037;-82
2023/05/10 06:05:06;;;;;;;4.40;4.05;;;;;;;;;;5033806;28;20041;-81
2023/05/10 06:07:34;;;;;;;3.60;3.40;;;;;;;;;;5045527;28;20402;-84
2023/05/10 06:10:02;;;;;;;4.13;3.55;;;;;;;;;;5037508;28;20128;-84
2023/05/10 06:12:30;;;;;;;3.85;3.65;;;;;;;;;;5034818;28;20132;-85
2023/05/10 06:14:57;;;;;;;4.00;3.70;;;;;;;;;;5040772;28;20552;-82
2023/05/10 06:17:25;;;;;;;3.45;3.10;;;;;;;;;;5044181;28;20045;-84
2023/05/10 06:19:52;;;;;;;3.90;3.63;;;;;;;;;;5045656;28;20103;-84
2023/05/10 06:22:22;;;;;;;3.75;3.40;;;;;;;;;;5043440;28;20053;-83
2023/05/10 06:24:50;;;;;;;3.38;3.05;;;;;;;;;;5041741;28;20043;-83
2023/05/10 06:27:17;;;;;;;3.97;3.67;;;;;;;;;;5043695;28;20531;-85
2023/05/10 06:29:44;;;;;;;3.55;3.25;;;;;;;;;;5045340;28;20726;-85
2023/05/10 06:32:11;;;;;;;3.38;3.15;;;;;;;;;;5049088;28;20076;-85
2023/05/10 06:34:39;;;;;;;3.95;3.65;;;;;;;;;;5041888;28;20170;-85
2023/05/10 06:37:06;;;;;;;4.15;3.72;;;;;;;;;;5040843;28;20045;-85
2023/05/10 06:39:34;;;;;;;4.05;3.55;;;;;;;;;;5033535;28;20044;-85
2023/05/10 06:42:02;;;;;;;3.88;3.58;;;;;;;;;;5043229;28;20053;-85
2023/05/10 06:44:32;;;;;;;4.37;4.07;;;;;;;;;;5048392;28;20056;-84
2023/05/10 06:47:00;;;;;;;4.28;3.88;;;;;;;;;;5047325;28;20128;-85
2023/05/10 06:49:27;;;;;;;3.90;3.60;;;;;;;;;;5047133;28;20116;-85
2023/05/10 06:51:56;;;;;;;4.25;3.90;;;;;;;;;;5029726;28;20044;-84
2023/05/10 06:54:23;;;;;;;4.30;4.00;;;;;;;;;;5042118;28;20049;-84
2023/05/10 06:56:50;;;;;;;3.83;3.58;;;;;;;;;;5033038;28;20131;-84
2023/05/10 06:59:19;;;;;;;3.78;3.47;;;;;;;;;;5038299;28;20108;-85
2023/05/10 07:01:46;;;;;;;3.75;3.45;;;;;;;;;;5037156;28;20148;-84
2023/05/10 07:04:17;;;;;;;3.80;3.50;;;;;;;;;;5052317;28;20545;-83
2023/05/10 07:06:46;;;;;;;3.50;3.30;;;;;;;;;;5040482;28;20045;-84
2023/05/10 07:09:13;;;;;;;4.25;3.33;;;;;;;;;;5048976;28;20049;-84
2023/05/10 07:11:41;;;;;;;4.22;3.90;;;;;;;;;;5026639;28;20712;-85
2023/05/10 07:14:08;;;;;;;3.33;3.13;;;;;;;;;;5023901;28;20052;-85
2023/05/10 07:16:38;;;;;;;3.40;3.20;;;;;;;;;;5038671;28;20064;-85
2023/05/10 07:19:05;;;;;;;3.70;3.40;;;;;;;;;;5040332;28;20136;-84
2023/05/10 07:21:35;;;;;;;3.33;3.13;;;;;;;;;;5029903;28;20049;-86
2023/05/10 07:24:03;;;;;;;4.43;4.05;;;;;;;;;;5046633;28;20132;-86
2023/05/10 07:26:36;;;;;;;3.67;3.38;;;;;;;;;;5043154;28;20076;-85
2023/05/10 07:29:04;;;;;;;3.88;3.58;;;;;;;;;;5046850;28;20409;-84
2023/05/10 07:31:38;;;;;;;3.78;3.53;;;;;;;;;;5042407;28;20048;-85
2023/05/10 07:38:36;;;;;;;4.20;3.90;;;;;;;;;;5059049;28;20049;-79
2023/05/10 07:41:09;;;;;;;4.15;3.85;;;;;;;;;;5045705;28;20067;-84
2023/05/10 07:43:39;;;;;;;;;;;;;;;;;;5059271;28;20033;-82
2023/05/10 07:46:31;;;;;;;4.32;4.03;;;;;;;;;;5053587;28;19909;-83
2023/05/10 07:53:48;;;;;;;3.85;3.55;;;;;;;;;;5004297;28;20031;-84
2023/05/10 07:57:43;;;;;;;13.65;9.63;;;;;;;;;;4984757;28;20057;-85
2023/05/10 08:05:26;;;;;;;4.35;3.88;;;;;;;;;;5017125;28;20040;-85
2023/05/10 08:07:54;;;;;;;4.60;3.60;;;;;;;;;;5082165;23;20048;-80
2023/05/10 08:10:22;;;;;;;3.85;3.55;;;;;;;;;;5045431;28;20122;-77
2023/05/10 08:12:49;;;;;;;4.38;3.97;;;;;;;;;;5041997;28;20237;-79
2023/05/10 08:15:17;;;;;;;4.22;3.92;;;;;;;;;;5043272;28;20395;-78
2023/05/10 08:17:44;;;;;;;3.85;3.55;;;;;;;;;;5047071;28;20140;-78
2023/05/10 08:20:12;;;;;;;4.40;4.07;;;;;;;;;;5044350;28;20391;-78
2023/05/10 08:22:40;;;;;;;3.85;3.55;;;;;;;;;;5020204;28;20090;-78
2023/05/10 08:25:08;;;;;;;4.05;3.75;;;;;;;;;;5039863;28;20491;-79
2023/05/10 08:27:35;;;;;;;4.03;3.72;;;;;;;;;;5041996;28;20045;-78
2023/05/10 08:30:02;;;;;;;4.72;4.43;;;;;;;;;;5042731;28;20060;-79
2023/05/10 08:32:31;;;;;;;4.82;4.50;;;;;;;;;;5049205;28;20045;-78
2023/05/10 08:34:58;;;;;;;4.60;4.30;;;;;;;;;;5048299;28;20045;-78
2023/05/10 08:37:26;;;;;;;4.07;3.80;;;;;;;;;;5039736;28;20049;-79
2023/05/10 08:39:53;;;;;;;4.65;4.25;;;;;;;;;;5044457;28;20064;-78
2023/05/10 08:42:22;;;;;;;5.00;4.43;;;;;;;;;;5044996;28;20037;-79
2023/05/10 08:44:50;;;;;;;4.55;4.22;;;;;;;;;;5022743;28;20059;-78
2023/05/10 08:47:18;;;;;;;5.03;4.65;;;;;;;;;;5040218;28;20410;-79
2023/05/10 08:49:50;;;;;;;4.10;3.80;;;;;;;;;;5038053;28;20028;-79
2023/05/10 08:52:18;;;;;;;3.78;3.58;;;;;;;;;;5044731;28;20081;-78
2023/05/10 08:54:46;;;;;;;3.92;3.63;;;;;;;;;;5041667;28;20139;-78
2023/05/10 08:57:13;;;;;;;4.68;4.28;;;;;;;;;;5041560;28;20132;-78
2023/05/10 08:59:40;;;;;;;4.25;3.72;;;;;;;;;;5041408;28;20135;-79
2023/05/10 09:02:10;;;;;;;4.75;4.00;;;;;;;;;;5036469;28;20144;-79
2023/05/10 09:04:37;;;;;;;5.00;4.60;;;;;;;;;;5041177;28;20155;-78
2023/05/10 09:07:05;;;;;;;5.22;4.20;;;;;;;;;;5041724;28;20515;-78
2023/05/10 09:09:33;;;;;;;5.00;4.70;;;;;;;;;;5044183;28;20133;-77
2023/05/10 09:12:01;;;;;;;4.80;4.28;;;;;;;;;;5039292;28;20127;-78
2023/05/10 09:14:28;;;;;;;4.97;4.57;;;;;;;;;;5039774;28;20045;-78
2023/05/10 09:16:56;;;;;;;4.60;4.30;;;;;;;;;;5034225;28;20084;-78
2023/05/10 09:19:24;;;;;;;4.65;4.35;;;;;;;;;;5038670;28;20055;-78
2023/05/10 09:21:51;;;;;;;4.72;4.35;;;;;;;;;;5021329;28;20144;-79
2023/05/10 09:24:19;;;;;;;4.80;4.50;;;;;;;;;;5046640;28;20454;-79
2023/05/10 09:26:48;;;;;;;4.28;3.92;;;;;;;;;;5040014;28;20068;-79
2023/05/10 09:29:15;;;;;;;5.07;4.40;;;;;;;;;;5040004;28;20411;-79
2023/05/10 09:31:50;;;;;;;5.00;4.60;;;;;;;;;;5022049;28;20045;-77
2023/05/10 09:34:23;;;;;;;4.97;4.57;;;;;;;;;;5047833;28;20059;-77
2023/05/10 09:36:51;;;;;;;4.40;4.10;;;;;;;;;;5049961;28;20534;-77
2023/05/10 09:39:19;;;;;;;4.00;3.70;;;;;;;;;;5043650;28;20400;-78
2023/05/10 09:41:47;;;;;;;3.97;3.67;;;;;;;;;;5038243;28;20060;-77
2023/05/10 09:44:18;;;;;;;4.32;4.03;;;;;;;;;;5048175;28;20118;-77
2023/05/10 09:46:49;;;;;;;3.80;3.50;;;;;;;;;;5039681;28;20151;-77
2023/05/10 09:49:17;;;;;;;3.70;3.50;;;;;;;;;;5047976;28;20049;-77
2023/05/10 09:51:44;;;;;;;4.50;4.10;;;;;;;;;;5038200;28;20067;-78
2023/05/10 09:54:13;;;;;;;3.83;3.53;;;;;;;;;;5034125;28;20081;-79
2023/05/10 09:56:40;;;;;;;4.70;4.25;;;;;;;;;;5020096;28;20045;-79
2023/05/10 09:59:11;;;;;;;4.60;4.30;;;;;;;;;;5039437;28;20538;-79
2023/05/10 10:01:40;;;;;;;6.35;4.95;;;;;;;;;;5034908;28;20537;-79
2023/05/10 10:04:10;;;;;;;5.85;5.30;;;;;;;;;;5041230;28;20115;-79
2023/05/10 10:06:38;;;;;;;5.80;5.30;;;;;;;;;;5040418;28;20410;-79
2023/05/10 10:09:06;;;;;;;4.63;4.32;;;;;;;;;;5039122;28;20041;-79
2023/05/10 10:11:38;;;;;;;5.30;4.80;;;;;;;;;;5036967;28;20145;-79
2023/05/10 10:14:05;;;;;;;5.30;4.60;;;;;;;;;;5031669;28;20119;-79
2023/05/10 10:16:33;;;;;;;4.32;3.97;;;;;;;;;;5039879;28;20103;-79
2023/05/10 10:19:01;;;;;;;3.88;3.67;;;;;;;;;;5035468;28;20558;-79
2023/05/10 10:21:29;;;;;;;3.22;3.03;;;;;;;;;;5038139;28;20041;-79
2023/05/10 10:23:56;;;;;;;3.15;2.95;;;;;;;;;;5040842;28;20096;-80
2023/05/10 10:26:24;;;;;;;4.07;3.78;;;;;;;;;;5046319;28;20079;-80
2023/05/10 10:29:12;;;;;;;3.00;2.83;;;;;;;;;;5020535;28;20099;-80
2023/05/10 10:31:42;;;;;;;2.97;2.78;;;;;;;;;;4991509;28;20113;-80
2023/05/10 10:34:12;;;;;;;2.85;2.65;;;;;;;;;;5043157;28;20075;-80
2023/05/10 10:36:41;;;;;;;2.50;2.40;;;;;;;;;;5041833;28;20205;-80
2023/05/10 10:39:10;;;;;;;2.30;2.20;;;;;;;;;;5036502;28;20046;-80
2023/05/10 10:41:43;;;;;;;2.30;2.20;;;;;;;;;;5041116;28;20260;-80
2023/05/10 10:44:24;;;;;;;2.38;2.28;;;;;;;;;;5041014;28;20472;-80
2023/05/10 10:47:05;;;;;;;2.25;2.15;;;;;;;;;;5043570;28;20582;-80
2023/05/10 10:49:37;;;;;;;3.03;2.80;;;;;;;;;;5038568;28;20045;-80
2023/05/10 10:52:28;;;;;;;2.72;2.53;;;;;;;;;;5034021;28;20402;-80
2023/05/10 10:55:01;;;;;;;1.90;1.80;;;;;;;;;;5040282;28;20119;-80
2023/05/10 10:57:51;;;;;;;2.42;2.33;;;;;;;;;;5036876;28;20044;-80
2023/05/10 11:00:22;;;;;;;2.25;2.15;;;;;;;;;;5042436;28;20045;-79
2023/05/10 11:02:58;;;;;;;2.08;1.98;;;;;;;;;;5042784;28;20443;-79
2023/05/10 11:05:29;;;;;;;2.10;2.00;;;;;;;;;;5019441;28;20083;-79
2023/05/10 11:07:58;;;;;;;2.25;2.15;;;;;;;;;;5032740;28;20049;-79
2023/05/10 11:10:26;;;;;;;2.83;2.72;;;;;;;;;;5035673;28;20529;-80
2023/05/10 11:13:04;;;;;;;2.53;2.42;;;;;;;;;;5037929;28;20041;-79
2023/05/10 11:15:38;;;;;;;2.50;2.30;;;;;;;;;;5038585;28;20397;-79
2023/05/10 11:18:28;;;;;;;2.50;2.40;;;;;;;;;;5037907;28;20128;-79
2023/05/10 11:21:05;;;;;;;2.58;2.47;;;;;;;;;;5041907;28;20053;-79
2023/05/10 11:23:33;;;;;;;3.20;3.00;;;;;;;;;;5018051;28;20059;-79
2023/05/10 11:26:01;;;;;;;2.50;2.40;;;;;;;;;;5039112;28;20032;-79
2023/05/10 11:28:31;;;;;;;2.90;2.70;;;;;;;;;;5033662;28;20153;-80
2023/05/10 11:30:59;;;;;;;2.67;2.50;;;;;;;;;;5041350;28;20059;-79
2023/05/10 11:33:26;;;;;;;2.67;2.58;;;;;;;;;;5038912;28;20049;-79
2023/05/10 11:35:54;;;;;;;2.33;2.22;;;;;;;;;;5041113;28;20037;-80
2023/05/10 11:38:21;;;;;;;2.55;2.45;;;;;;;;;;5037696;28;20051;-79
2023/05/10 11:40:53;;;;;;;3.88;3.58;;;;;;;;;;5042819;28;20049;-78
2023/05/10 11:43:24;;;;;;;4.18;3.83;;;;;;;;;;5032712;28;20052;-80
2023/05/10 11:45:51;;;;;;;3.50;3.30;;;;;;;;;;5034849;28;20061;-79
2023/05/10 11:48:22;;;;;;;3.05;2.85;;;;;;;;;;5038679;28;20079;-79
2023/05/10 11:50:49;;;;;;;3.33;3.13;;;;;;;;;;5040640;28;20045;-79
2023/05/10 11:53:16;;;;;;;3.13;2.92;;;;;;;;;;5036852;28;20075;-79
2023/05/10 11:55:44;;;;;;;2.55;2.45;;;;;;;;;;5043581;28;20049;-79
2023/05/10 11:58:12;;;;;;;2.63;2.53;;;;;;;;;;5039103;28;20701;-79
2023/05/10 12:00:39;;;;;;;2.50;2.40;;;;;;;;;;5036435;28;20049;-79
2023/05/10 12:03:07;;;;;;;2.72;2.58;;;;;;;;;;5032842;28;20065;-78
2023/05/10 12:05:35;;;;;;;2.70;2.60;;;;;;;;;;5037313;28;20056;-79
2023/05/10 12:08:12;;;;;;;2.35;2.25;;;;;;;;;;5040149;28;21036;-79
2023/05/10 12:10:39;;;;;;;2.42;2.33;;;;;;;;;;5039632;28;20048;-79
2023/05/10 12:13:12;;;;;;;2.00;1.90;;;;;;;;;;5018175;28;20037;-79
2023/05/10 12:15:39;;;;;;;3.50;3.30;;;;;;;;;;5043667;28;20049;-80
2023/05/10 12:18:08;;;;;;;3.00;2.80;;;;;;;;;;5044773;28;20091;-79
2023/05/10 12:20:35;;;;;;;3.03;2.83;;;;;;;;;;5035868;28;20056;-79
2023/05/10 12:23:03;;;;;;;2.95;2.75;;;;;;;;;;5037418;28;20420;-79
2023/05/10 12:25:32;;;;;;;2.95;2.78;;;;;;;;;;5040279;28;20047;-79
2023/05/10 12:28:01;;;;;;;2.65;2.47;;;;;;;;;;5037314;28;20120;-79
2023/05/10 12:30:29;;;;;;;6.63;6.13;;;;;;;;;;5021350;28;20068;-79
2023/05/10 12:33:00;;;;;;;4.13;3.83;;;;;;;;;;5040933;28;20125;-78
2023/05/10 12:35:31;;;;;;;2.60;2.50;;;;;;;;;;5041437;28;20075;-79
2023/05/10 12:37:59;;;;;;;2.70;2.60;;;;;;;;;;5021063;28;20053;-80
2023/05/10 12:40:26;;;;;;;3.25;2.92;;;;;;;;;;5042542;28;20049;-79
2023/05/10 12:42:53;;;;;;;2.30;2.20;;;;;;;;;;5042807;28;20049;-79
2023/05/10 12:45:21;;;;;;;3.10;2.90;;;;;;;;;;5045588;28;20056;-79
2023/05/10 12:47:49;;;;;;;3.20;3.00;;;;;;;;;;5046992;28;20612;-79
2023/05/10 12:50:16;;;;;;;3.05;2.85;;;;;;;;;;5046738;28;20049;-79
2023/05/10 12:52:44;;;;;;;2.40;2.20;;;;;;;;;;5047072;28;20049;-79
2023/05/10 12:55:11;;;;;;;3.10;2.90;;;;;;;;;;5046689;28;20053;-78
2023/05/10 12:57:39;;;;;;;3.13;2.92;;;;;;;;;;5047201;28;20040;-78
2023/05/10 13:00:07;;;;;;;2.92;2.72;;;;;;;;;;5043943;28;20076;-78
2023/05/10 13:02:34;;;;;;;2.53;2.30;;;;;;;;;;5045835;28;20194;-78
2023/05/10 13:05:04;;;;;;;7.18;2.28;;;;;;;;;;5045925;28;20155;-78
2023/05/10 13:07:33;;;;;;;2.00;1.90;;;;;;;;;;5036805;28;20045;-78
2023/05/10 13:10:00;;;;;;;2.17;2.08;;;;;;;;;;5042899;28;20049;-77
2023/05/10 13:12:29;;;;;;;4.10;3.70;;;;;;;;;;5041082;28;20120;-77
2023/05/10 13:14:57;;;;;;;5.00;4.60;;;;;;;;;;5040356;28;20083;-78
2023/05/10 13:17:25;;;;;;;4.20;3.80;;;;;;;;;;5025801;28;20056;-77
2023/05/10 13:19:53;;;;;;;3.88;3.58;;;;;;;;;;5045044;28;20057;-77
2023/05/10 13:22:20;;;;;;;2.97;2.78;;;;;;;;;;5041641;28;20053;-77
2023/05/10 13:25:03;;;;;;;2.42;2.30;;;;;;;;;;5038082;28;20055;-77
2023/05/10 13:27:30;;;;;;;2.20;2.10;;;;;;;;;;5045123;28;20041;-77
2023/05/10 13:29:59;;;;;;;2.13;2.03;;;;;;;;;;5045747;28;20098;-77
2023/05/10 13:32:26;;;;;;;2.45;2.35;;;;;;;;;;5034144;28;20388;-77
2023/05/10 13:34:54;;;;;;;2.45;2.35;;;;;;;;;;5040704;28;20044;-77
2023/05/10 13:37:21;;;;;;;2.00;1.90;;;;;;;;;;5035563;28;20049;-77
2023/05/10 13:39:49;;;;;;;2.20;2.10;;;;;;;;;;5037830;28;20095;-76
2023/05/10 13:42:16;;;;;;;2.20;2.10;;;;;;;;;;5045406;28;20225;-77
2023/05/10 13:44:44;;;;;;;1.60;1.60;;;;;;;;;;5045588;28;20083;-76
2023/05/10 13:47:12;;;;;;;2.72;2.53;;;;;;;;;;5038222;28;20068;-77
2023/05/10 13:49:39;;;;;;;3.15;2.95;;;;;;;;;;5042744;28;20041;-77
2023/05/10 13:52:06;;;;;;;2.55;2.35;;;;;;;;;;5030498;28;20037;-77
2023/05/10 13:54:35;;;;;;;2.50;2.30;;;;;;;;;;5042560;28;20407;-78
2023/05/10 13:57:03;;;;;;;2.30;2.20;;;;;;;;;;5034943;28;20045;-77
2023/05/10 13:59:33;;;;;;;1.90;1.80;;;;;;;;;;5044065;28;20044;-77
2023/05/10 14:02:04;;;;;;;2.05;1.95;;;;;;;;;;5018590;28;20055;-77
2023/05/10 14:04:31;;;;;;;3.40;3.20;;;;;;;;;;5045122;28;20048;-77
2023/05/10 14:06:59;;;;;;;2.65;2.47;;;;;;;;;;5044139;28;20128;-77
2023/05/10 14:09:26;;;;;;;2.17;2.08;;;;;;;;;;5045186;28;20456;-77
2023/05/10 14:11:54;;;;;;;2.00;1.90;;;;;;;;;;5045146;28;20049;-77
2023/05/10 14:14:21;;;;;;;2.85;1.98;;;;;;;;;;5045279;28;20056;-77
2023/05/10 14:16:48;;;;;;;2.20;2.10;;;;;;;;;;5041781;28;20053;-77
2023/05/10 14:19:16;;;;;;;1.90;1.80;;;;;;;;;;5026374;28;20160;-77
2023/05/10 14:21:43;;;;;;;2.05;1.58;;;;;;;;;;5044282;28;20554;-77
2023/05/10 14:24:10;;;;;;;2.10;1.90;;;;;;;;;;5043520;28;20059;-77
2023/05/10 14:26:38;;;;;;;1.73;1.63;;;;;;;;;;5040157;28;20473;-77
2023/05/10 14:29:05;;;;;;;2.25;1.58;;;;;;;;;;5044174;28;20049;-76
2023/05/10 14:31:33;;;;;;;1.30;1.30;;;;;;;;;;5042051;28;20047;-77
2023/05/10 14:34:00;;;;;;;1.58;1.55;;;;;;;;;;5042386;28;20041;-77
2023/05/10 14:36:28;;;;;;;1.63;1.63;;;;;;;;;;5039654;28;20044;-76
2023/05/10 14:38:56;;;;;;;1.67;1.58;;;;;;;;;;5044440;28;20473;-77
2023/05/10 14:41:24;;;;;;;1.58;1.50;;;;;;;;;;5041839;28;20423;-77
2023/05/10 14:43:52;;;;;;;1.50;1.40;;;;;;;;;;5043778;28;20107;-76
2023/05/10 14:46:19;;;;;;;1.52;1.30;;;;;;;;;;5019956;28;20049;-77
2023/05/10 14:48:47;;;;;;;1.45;1.40;;;;;;;;;;5043357;28;20567;-77
2023/05/10 14:51:14;;;;;;;1.10;1.10;;;;;;;;;;5042494;28;20113;-77
2023/05/10 14:53:41;;;;;;;1.02;1.02;;;;;;;;;;5042014;28;20136;-77
2023/05/10 14:56:09;;;;;;;1.50;1.40;;;;;;;;;;5040813;28;20045;-77
2023/05/10 14:58:36;;;;;;;1.30;1.30;;;;;;;;;;5041871;28;20136;-77
2023/05/10 15:01:04;;;;;;;1.92;1.83;;;;;;;;;;5040707;28;20769;-77
2023/05/10 15:03:32;;;;;;;3.10;2.90;;;;;;;;;;5043274;28;20098;-77
2023/05/10 15:05:59;;;;;;;1.85;1.75;;;;;;;;;;5042091;28;20179;-77
2023/05/10 15:08:27;;;;;;;1.75;1.65;;;;;;;;;;5042241;28;20333;-77
2023/05/10 15:10:55;;;;;;;1.92;1.83;;;;;;;;;;5042194;28;20068;-77